LHT4MR EDHK-EDBP
Flight info
| Callsign | LHT4MR |
|---|---|
| Flight time | 0h 15m |
| Altitude | 11000 |
| Route | OTAHO1L OTAHO DCT LUGEG DCT BERIM |
| Aircraft | A20N/M-SDE2E3FGHIRWXY/LB1 |
Departure
| Time | 2026-05-07 22:15 |
|---|---|
| Airport | Kiel-Holtenau Airport (EDHK) |
Arrival
| Time | 2026-05-07 22:30 |
|---|---|
| Airport | Pinnow Airfield (EDBP) |
| Time | Latitude | Longitude | Altitude | Speed | Heading |
|---|---|---|---|---|---|
| 2026-05-07 22:04 | 54.38310 | 10.14513 | 113 ft | 0 kts | 353° |
| 2026-05-07 22:09 | 54.38304 | 10.14514 | 110 ft | 4 kts | 353° |
| 2026-05-07 22:09 | 54.38294 | 10.14516 | 113 ft | 1 kts | 353° |
| 2026-05-07 22:09 | 54.38293 | 10.14517 | 113 ft | 1 kts | 353° |
| 2026-05-07 22:10 | 54.38291 | 10.14517 | 113 ft | 1 kts | 353° |
| 2026-05-07 22:10 | 54.38280 | 10.14520 | 110 ft | 3 kts | 337° |
| 2026-05-07 22:10 | 54.38271 | 10.14523 | 110 ft | 4 kts | 305° |
| 2026-05-07 22:10 | 54.38274 | 10.14411 | 113 ft | 14 kts | 263° |
| 2026-05-07 22:11 | 54.38258 | 10.14200 | 112 ft | 21 kts | 261° |
| 2026-05-07 22:11 | 54.38228 | 10.13917 | 111 ft | 27 kts | 257° |
| 2026-05-07 22:11 | 54.38117 | 10.13638 | 108 ft | 32 kts | 215° |
| 2026-05-07 22:11 | 54.37972 | 10.13563 | 108 ft | 16 kts | 180° |
| 2026-05-07 22:12 | 54.37899 | 10.13571 | 110 ft | 5 kts | 174° |
| 2026-05-07 22:12 | 54.37889 | 10.13538 | 109 ft | 6 kts | 258° |
| 2026-05-07 22:12 | 54.37881 | 10.13424 | 111 ft | 10 kts | 263° |
| 2026-05-07 22:12 | 54.37877 | 10.13380 | 109 ft | 2 kts | 256° |
| 2026-05-07 22:13 | 54.37871 | 10.13377 | 110 ft | 1 kts | 200° |
| 2026-05-07 22:13 | 54.37868 | 10.13381 | 110 ft | 0 kts | 161° |
| 2026-05-07 22:13 | 54.37867 | 10.13387 | 108 ft | 1 kts | 125° |
| 2026-05-07 22:13 | 54.37869 | 10.13402 | 108 ft | 1 kts | 85° |
| 2026-05-07 22:15 | 54.37890 | 10.13684 | 112 ft | 80 kts | 83° |
| 2026-05-07 22:15 | 54.38007 | 10.15171 | 363 ft | 153 kts | 82° |
| 2026-05-07 22:15 | 54.37871 | 10.17108 | 1424 ft | 178 kts | 117° |
| 2026-05-07 22:15 | 54.37016 | 10.18914 | 2454 ft | 221 kts | 134° |
| 2026-05-07 22:16 | 54.35738 | 10.20842 | 3200 ft | 263 kts | 138° |
| 2026-05-07 22:16 | 54.34426 | 10.23151 | 4656 ft | 269 kts | 127° |
| 2026-05-07 22:16 | 54.33080 | 10.25297 | 5845 ft | 274 kts | 147° |
| 2026-05-07 22:16 | 54.31299 | 10.26886 | 6844 ft | 300 kts | 151° |
| 2026-05-07 22:17 | 54.29369 | 10.28607 | 7697 ft | 325 kts | 149° |
| 2026-05-07 22:17 | 54.27574 | 10.31169 | 8470 ft | 349 kts | 131° |
| 2026-05-07 22:17 | 54.26005 | 10.34478 | 8834 ft | 371 kts | 126° |
| 2026-05-07 22:17 | 54.24467 | 10.38074 | 8772 ft | 372 kts | 125° |
| 2026-05-07 22:18 | 54.22940 | 10.41628 | 8304 ft | 374 kts | 126° |
| 2026-05-07 22:18 | 54.20360 | 10.47354 | 8342 ft | 384 kts | 127° |
| 2026-05-07 22:18 | 54.18685 | 10.50960 | 8547 ft | 386 kts | 128° |
| 2026-05-07 22:19 | 54.16996 | 10.54549 | 8670 ft | 387 kts | 128° |
| 2026-05-07 22:19 | 54.15301 | 10.58128 | 8791 ft | 388 kts | 128° |
| 2026-05-07 22:19 | 54.13597 | 10.61724 | 8985 ft | 389 kts | 128° |
| 2026-05-07 22:19 | 54.11912 | 10.65274 | 9126 ft | 390 kts | 128° |
| 2026-05-07 22:20 | 54.10197 | 10.68885 | 9249 ft | 391 kts | 128° |
| 2026-05-07 22:20 | 54.08479 | 10.72494 | 9419 ft | 393 kts | 128° |
| 2026-05-07 22:20 | 54.06748 | 10.76129 | 9645 ft | 394 kts | 129° |
| 2026-05-07 22:20 | 54.05035 | 10.79722 | 9798 ft | 396 kts | 129° |
| 2026-05-07 22:21 | 54.03271 | 10.83416 | 9918 ft | 398 kts | 129° |
| 2026-05-07 22:21 | 54.01546 | 10.87024 | 10049 ft | 399 kts | 129° |
| 2026-05-07 22:21 | 53.99799 | 10.90673 | 10093 ft | 390 kts | 129° |
| 2026-05-07 22:21 | 53.98086 | 10.94245 | 9863 ft | 392 kts | 129° |
| 2026-05-07 22:22 | 53.96370 | 10.97818 | 9503 ft | 386 kts | 129° |
| 2026-05-07 22:22 | 53.94704 | 11.01279 | 8804 ft | 379 kts | 129° |
| 2026-05-07 22:22 | 53.93043 | 11.04724 | 7893 ft | 373 kts | 128° |
| 2026-05-07 22:22 | 53.91408 | 11.08109 | 7343 ft | 371 kts | 128° |
| 2026-05-07 22:23 | 53.89770 | 11.11496 | 6876 ft | 367 kts | 128° |
| 2026-05-07 22:23 | 53.88183 | 11.14764 | 6198 ft | 360 kts | 128° |
| 2026-05-07 22:23 | 53.86611 | 11.18015 | 5680 ft | 357 kts | 127° |
| 2026-05-07 22:23 | 53.85036 | 11.21276 | 5225 ft | 356 kts | 127° |
| 2026-05-07 22:24 | 53.83483 | 11.24469 | 4521 ft | 349 kts | 127° |
| 2026-05-07 22:24 | 53.81942 | 11.27649 | 4060 ft | 349 kts | 127° |
| 2026-05-07 22:24 | 53.80395 | 11.30826 | 3534 ft | 346 kts | 127° |
| 2026-05-07 22:24 | 53.78871 | 11.33945 | 2802 ft | 340 kts | 127° |
| 2026-05-07 22:25 | 53.77390 | 11.36993 | 2401 ft | 320 kts | 127° |
| 2026-05-07 22:25 | 53.76052 | 11.39722 | 2044 ft | 291 kts | 127° |
| 2026-05-07 22:25 | 53.74814 | 11.42242 | 1844 ft | 268 kts | 127° |
| 2026-05-07 22:25 | 53.73669 | 11.44578 | 1480 ft | 250 kts | 127° |
| 2026-05-07 22:26 | 53.72692 | 11.46890 | 1193 ft | 229 kts | 117° |
| 2026-05-07 22:26 | 53.72104 | 11.49149 | 902 ft | 195 kts | 107° |
| 2026-05-07 22:26 | 53.71843 | 11.50532 | 776 ft | 176 kts | 107° |
| 2026-05-07 22:26 | 53.71384 | 11.52851 | 599 ft | 138 kts | 108° |
| 2026-05-07 22:27 | 53.71099 | 11.54241 | 598 ft | 122 kts | 108° |
| 2026-05-07 22:27 | 53.70918 | 11.55125 | 582 ft | 119 kts | 107° |
| 2026-05-07 22:27 | 53.70652 | 11.56441 | 595 ft | 118 kts | 108° |
| 2026-05-07 22:27 | 53.70363 | 11.57733 | 683 ft | 117 kts | 118° |
| 2026-05-07 22:28 | 53.69758 | 11.58654 | 710 ft | 121 kts | 153° |
| 2026-05-07 22:28 | 53.68928 | 11.58790 | 713 ft | 123 kts | 189° |
| 2026-05-07 22:28 | 53.68092 | 11.58453 | 721 ft | 123 kts | 191° |
| 2026-05-07 22:28 | 53.67253 | 11.58145 | 738 ft | 122 kts | 189° |
| 2026-05-07 22:29 | 53.66420 | 11.57865 | 733 ft | 122 kts | 188° |
| 2026-05-07 22:29 | 53.65584 | 11.57589 | 710 ft | 122 kts | 188° |
| 2026-05-07 22:29 | 53.64755 | 11.57318 | 695 ft | 124 kts | 188° |
| 2026-05-07 22:29 | 53.63908 | 11.57038 | 576 ft | 123 kts | 188° |
| 2026-05-07 22:30 | 53.63062 | 11.56761 | 415 ft | 123 kts | 188° |
| 2026-05-07 22:30 | 53.62233 | 11.56490 | 239 ft | 119 kts | 189° |
| 2026-05-07 22:30 | 53.61475 | 11.56245 | 150 ft | 81 kts | 189° |
| 2026-05-07 22:30 | 53.61269 | 11.56170 | 154 ft | 19 kts | 204° |
| 2026-05-07 22:31 | 53.61191 | 11.56124 | 153 ft | 8 kts | 190° |
| 2026-05-07 22:31 | 53.61165 | 11.56124 | 154 ft | 1 kts | 139° |
| 2026-05-07 22:31 | 53.61165 | 11.56127 | 154 ft | 0 kts | 125° |
| 2026-05-07 22:32 | 53.61166 | 11.56129 | 154 ft | 0 kts | 115° |
| 2026-05-07 22:32 | 53.61169 | 11.56136 | 154 ft | 1 kts | 60° |
| 2026-05-07 22:32 | 53.61175 | 11.56135 | 153 ft | 0 kts | 11° |